createdAt,value
2019-02-28T15:51:57.459Z,105.20
2019-02-28T15:54:27.742Z,112.10
2019-02-28T15:56:58.045Z,107.43
2019-02-28T15:59:34.005Z,104.07
2019-02-28T16:02:06.367Z,106.47
2019-02-28T16:04:54.202Z,107.43
2019-02-28T16:07:24.516Z,110.63
2019-02-28T16:09:57.078Z,106.97
2019-02-28T16:12:26.707Z,108.83
2019-02-28T16:14:56.856Z,107.70
2019-02-28T16:17:27.047Z,109.27
2019-02-28T16:19:57.334Z,106.90
2019-02-28T16:22:28.480Z,109.80
2019-02-28T16:24:58.707Z,117.63
2019-02-28T16:27:29.553Z,116.17
2019-02-28T16:30:00.938Z,117.00
2019-02-28T16:32:31.224Z,112.17
2019-02-28T16:35:01.567Z,108.17
2019-02-28T16:37:32.272Z,108.50
2019-02-28T16:40:04.041Z,108.13
2019-02-28T16:42:34.273Z,121.27
2019-02-28T16:45:06.138Z,112.57
2019-02-28T16:47:37.159Z,113.93
2019-02-28T16:50:08.384Z,110.50
2019-02-28T16:55:12.043Z,112.43
2019-02-28T16:57:43.625Z,116.20
2019-02-28T17:00:15.769Z,128.15
2019-02-28T17:02:46.368Z,122.70
2019-02-28T17:05:16.895Z,134.80
2019-02-28T17:07:47.356Z,157.07
2019-02-28T17:10:19.857Z,150.97
2019-02-28T17:13:05.071Z,161.00
2019-02-28T17:15:45.833Z,170.20
2019-02-28T17:18:21.482Z,170.05
2019-02-28T17:20:50.819Z,163.20
2019-02-28T17:23:21.347Z,160.45
2019-02-28T17:25:53.498Z,156.23
2019-02-28T17:28:32.741Z,157.23
2019-02-28T17:31:20.849Z,152.03
2019-02-28T17:33:51.196Z,125.00
2019-02-28T17:36:21.398Z,119.17
2019-02-28T17:38:51.734Z,104.37
2019-02-28T17:41:21.996Z,108.52
2019-02-28T17:44:37.490Z,101.07
2019-02-28T17:47:44.927Z,104.07
2019-02-28T17:50:54.636Z,99.45
2019-02-28T17:54:20.759Z,106.70
2019-02-28T17:58:15.505Z,103.37
2019-02-28T18:01:25.326Z,102.20
2019-02-28T18:04:48.776Z,108.20
2019-02-28T18:08:27.741Z,110.53
2019-02-28T18:11:47.080Z,102.47
2019-02-28T18:14:45.547Z,109.80
2019-02-28T18:18:28.291Z,104.17
2019-02-28T18:21:41.061Z,118.57
2019-02-28T18:25:17.200Z,114.40
2019-02-28T18:28:44.243Z,115.13
2019-02-28T18:31:19.202Z,118.50
2019-02-28T18:34:02.397Z,113.80
2019-02-28T18:36:33.710Z,123.72
2019-02-28T18:39:08.139Z,119.93
2019-02-28T18:41:38.879Z,123.00
2019-02-28T18:44:13.683Z,117.90
2019-02-28T18:46:44.208Z,117.33
2019-02-28T18:49:15.099Z,119.02
2019-02-28T18:51:46.232Z,117.10
2019-02-28T18:54:16.863Z,112.52
2019-02-28T18:56:47.337Z,111.93
2019-02-28T18:59:18.028Z,107.15
2019-02-28T19:01:48.619Z,116.30
2019-02-28T19:04:19.120Z,115.37
2019-02-28T19:06:49.503Z,109.17
2019-02-28T19:09:22.698Z,115.97
2019-02-28T19:11:53.320Z,109.53
2019-02-28T19:14:23.929Z,116.65
2019-02-28T19:16:54.963Z,111.27
2019-02-28T19:19:25.497Z,106.67
2019-02-28T19:21:56.052Z,117.37
2019-02-28T19:24:26.493Z,114.53
2019-02-28T19:26:57.001Z,118.47
2019-02-28T19:29:27.380Z,120.90
2019-02-28T19:32:03.754Z,113.37
2019-02-28T19:34:34.412Z,112.80
2019-02-28T19:37:05.124Z,116.93
2019-02-28T19:39:35.425Z,112.87
2019-02-28T19:42:05.900Z,118.50
2019-02-28T19:44:36.385Z,115.50
2019-02-28T19:47:06.943Z,128.03
2019-02-28T19:49:37.434Z,121.73
2019-02-28T19:52:07.912Z,116.57
2019-02-28T19:54:38.414Z,116.67
2019-02-28T19:57:08.616Z,111.33
2019-02-28T19:59:38.945Z,120.00
2019-02-28T20:02:09.191Z,119.53
2019-02-28T20:04:39.285Z,116.67
2019-02-28T20:07:09.430Z,123.40
2019-02-28T20:09:39.615Z,114.17
2019-02-28T20:12:09.774Z,111.50
2019-02-28T20:14:39.888Z,119.83
2019-02-28T20:17:10.156Z,118.23
2019-02-28T20:19:40.216Z,115.83
2019-02-28T20:22:10.452Z,121.10
2019-02-28T20:24:40.728Z,110.87
2019-02-28T20:27:10.942Z,117.83
2019-02-28T20:29:41.136Z,113.43
2019-02-28T20:32:11.398Z,116.50
2019-02-28T20:34:41.447Z,116.27
2019-02-28T20:37:11.633Z,122.62
2019-02-28T20:39:41.808Z,120.23
2019-02-28T20:42:12.146Z,117.97
2019-02-28T20:44:42.503Z,113.10
2019-02-28T20:47:12.697Z,113.03
2019-02-28T20:49:42.941Z,116.87
2019-02-28T20:52:13.149Z,116.57
2019-02-28T20:54:43.270Z,127.77
2019-02-28T20:57:13.587Z,119.77
2019-02-28T20:59:43.736Z,109.20
2019-02-28T21:02:14.046Z,127.25
2019-02-28T21:04:44.162Z,107.93
2019-02-28T21:07:14.715Z,115.33
2019-02-28T21:09:45.281Z,117.40
2019-02-28T21:12:15.506Z,121.93
2019-02-28T21:14:45.656Z,110.37
2019-02-28T21:17:15.812Z,110.40
2019-02-28T21:19:45.970Z,118.37
2019-02-28T21:22:16.185Z,125.27
2019-02-28T21:24:46.481Z,117.83
2019-02-28T21:27:16.645Z,123.33
2019-02-28T21:29:46.797Z,110.17
2019-02-28T21:32:17.093Z,117.13
2019-02-28T21:34:47.235Z,99.27
2019-02-28T21:37:17.570Z,109.07
2019-02-28T21:39:47.742Z,113.53
2019-02-28T21:42:18.083Z,111.20
2019-02-28T21:44:48.231Z,115.40
2019-02-28T21:47:18.483Z,109.63
2019-02-28T21:49:48.606Z,113.63
2019-02-28T21:52:18.671Z,107.13
2019-02-28T21:54:48.825Z,114.00
2019-02-28T21:57:19.297Z,100.05
2019-02-28T21:59:49.806Z,100.77
2019-02-28T22:02:27.592Z,111.33
2019-02-28T22:04:57.952Z,110.80
2019-02-28T22:07:28.475Z,108.17
2019-02-28T22:09:58.983Z,103.60
2019-02-28T22:12:29.152Z,105.53
2019-02-28T22:14:59.314Z,106.87
2019-02-28T22:17:29.449Z,117.37
2019-02-28T22:19:59.630Z,108.35
2019-02-28T22:22:29.777Z,101.97
2019-02-28T22:25:00.006Z,116.50
2019-02-28T22:27:30.084Z,115.73
2019-02-28T22:30:02.102Z,110.43
2019-02-28T22:32:38.413Z,100.57
2019-02-28T22:35:22.681Z,103.00
2019-02-28T22:37:52.947Z,110.40
2019-02-28T22:40:23.169Z,112.60
2019-02-28T22:42:53.333Z,101.47
2019-02-28T22:45:23.488Z,108.97
2019-02-28T22:47:53.645Z,108.77
2019-02-28T22:50:23.743Z,108.05
2019-02-28T22:52:55.585Z,100.10
2019-02-28T22:55:25.871Z,104.23
2019-02-28T22:57:56.027Z,103.72
2019-02-28T23:00:46.787Z,101.77
2019-02-28T23:03:17.094Z,100.07
2019-02-28T23:05:47.399Z,103.60
2019-02-28T23:08:17.553Z,95.97
2019-02-28T23:10:47.791Z,101.40
2019-02-28T23:13:17.946Z,102.37
2019-02-28T23:15:48.190Z,92.20
2019-02-28T23:18:18.308Z,110.67
2019-02-28T23:20:48.576Z,121.13
2019-02-28T23:23:18.760Z,115.70
2019-02-28T23:25:49.090Z,103.33
2019-02-28T23:28:28.698Z,111.85
2019-02-28T23:31:57.884Z,120.03
2019-02-28T23:34:41.614Z,119.60
2019-02-28T23:37:11.827Z,114.62
2019-02-28T23:39:42.017Z,117.77
2019-02-28T23:42:12.525Z,128.30
2019-02-28T23:44:42.785Z,110.43
2019-02-28T23:47:13.045Z,109.63
2019-02-28T23:49:43.343Z,115.07
2019-02-28T23:52:13.762Z,126.80
2019-02-28T23:54:43.971Z,128.78
2019-02-28T23:57:14.048Z,115.53
2019-02-28T23:59:44.373Z,135.47
